sensor_id;sensor_type;location;lat;lon;timestamp;pressure;altitude;pressure_sealevel;temperature;humidity
26489;BME280;14169;43.684;10.484;2023-03-22T00:01:21;101646.06;;;11.62;100.00
26489;BME280;14169;43.684;10.484;2023-03-22T00:03:48;101651.22;;;11.64;100.00
26489;BME280;14169;43.684;10.484;2023-03-22T00:06:14;101644.31;;;11.63;100.00
26489;BME280;14169;43.684;10.484;2023-03-22T00:08:41;101646.84;;;11.66;100.00
26489;BME280;14169;43.684;10.484;2023-03-22T00:11:06;101643.38;;;11.65;100.00
26489;BME280;14169;43.684;10.484;2023-03-22T00:13:33;101638.94;;;11.69;100.00
26489;BME280;14169;43.684;10.484;2023-03-22T00:15:59;101643.34;;;11.67;100.00
26489;BME280;14169;43.684;10.484;2023-03-22T00:18:27;101645.97;;;11.67;100.00
26489;BME280;14169;43.684;10.484;2023-03-22T00:20:55;101645.16;;;11.63;100.00
26489;BME280;14169;43.684;10.484;2023-03-22T00:23:22;101643.53;;;11.58;100.00
26489;BME280;14169;43.684;10.484;2023-03-22T00:25:48;101636.66;;;11.55;100.00
26489;BME280;14169;43.684;10.484;2023-03-22T00:28:14;101636.69;;;11.52;100.00
26489;BME280;14169;43.684;10.484;2023-03-22T00:30:41;101634.19;;;11.48;100.00
26489;BME280;14169;43.684;10.484;2023-03-22T00:33:06;101630.88;;;11.41;100.00
26489;BME280;14169;43.684;10.484;2023-03-22T00:35:32;101634.44;;;11.37;100.00
26489;BME280;14169;43.684;10.484;2023-03-22T00:37:58;101645.81;;;11.33;100.00
26489;BME280;14169;43.684;10.484;2023-03-22T00:40:31;101638.13;;;11.26;100.00
26489;BME280;14169;43.684;10.484;2023-03-22T00:42:57;101633.03;;;11.21;100.00
26489;BME280;14169;43.684;10.484;2023-03-22T00:45:22;101633.84;;;11.23;100.00
26489;BME280;14169;43.684;10.484;2023-03-22T00:47:47;101632.97;;;11.23;100.00
26489;BME280;14169;43.684;10.484;2023-03-22T00:50:13;101613.81;;;11.24;100.00
26489;BME280;14169;43.684;10.484;2023-03-22T00:52:38;101619.00;;;11.27;100.00
26489;BME280;14169;43.684;10.484;2023-03-22T00:55:04;101619.00;;;11.27;100.00
26489;BME280;14169;43.684;10.484;2023-03-22T00:57:29;101620.69;;;11.29;100.00
26489;BME280;14169;43.684;10.484;2023-03-22T00:59:55;101611.78;;;11.39;100.00
26489;BME280;14169;43.684;10.484;2023-03-22T01:02:23;101617.75;;;11.44;100.00
26489;BME280;14169;43.684;10.484;2023-03-22T01:04:55;101616.81;;;11.47;100.00
26489;BME280;14169;43.684;10.484;2023-03-22T01:07:21;101620.16;;;11.53;100.00
26489;BME280;14169;43.684;10.484;2023-03-22T01:09:48;101620.94;;;11.57;100.00
26489;BME280;14169;43.684;10.484;2023-03-22T01:12:15;101617.28;;;11.65;100.00
26489;BME280;14169;43.684;10.484;2023-03-22T01:14:41;101613.72;;;11.69;100.00
26489;BME280;14169;43.684;10.484;2023-03-22T01:17:07;101612.75;;;11.73;100.00
26489;BME280;14169;43.684;10.484;2023-03-22T01:19:34;101607.50;;;11.75;100.00
26489;BME280;14169;43.684;10.484;2023-03-22T01:22:00;101614.41;;;11.77;100.00
26489;BME280;14169;43.684;10.484;2023-03-22T01:24:25;101614.31;;;11.80;100.00
26489;BME280;14169;43.684;10.484;2023-03-22T01:26:51;101615.06;;;11.86;100.00
26489;BME280;14169;43.684;10.484;2023-03-22T01:29:16;101617.63;;;11.89;100.00
26489;BME280;14169;43.684;10.484;2023-03-22T01:31:42;101627.97;;;11.92;100.00
26489;BME280;14169;43.684;10.484;2023-03-22T01:34:08;101611.41;;;11.94;100.00
26489;BME280;14169;43.684;10.484;2023-03-22T01:36:33;101609.66;;;11.95;100.00
26489;BME280;14169;43.684;10.484;2023-03-22T01:38:58;101614.91;;;11.95;100.00
26489;BME280;14169;43.684;10.484;2023-03-22T01:41:24;101607.94;;;11.95;100.00
26489;BME280;14169;43.684;10.484;2023-03-22T01:44:10;101602.69;;;11.95;100.00
26489;BME280;14169;43.684;10.484;2023-03-22T01:46:37;101601.84;;;11.95;100.00
26489;BME280;14169;43.684;10.484;2023-03-22T01:49:03;101600.94;;;11.96;100.00
26489;BME280;14169;43.684;10.484;2023-03-22T01:51:31;101605.19;;;12.00;100.00
26489;BME280;14169;43.684;10.484;2023-03-22T01:54:06;101602.56;;;12.00;100.00
26489;BME280;14169;43.684;10.484;2023-03-22T01:56:35;101602.50;;;12.03;100.00
26489;BME280;14169;43.684;10.484;2023-03-22T01:59:02;101594.59;;;12.06;100.00
26489;BME280;14169;43.684;10.484;2023-03-22T02:01:28;101597.06;;;12.12;100.00
26489;BME280;14169;43.684;10.484;2023-03-22T02:06:22;101598.78;;;12.13;100.00
26489;BME280;14169;43.684;10.484;2023-03-22T02:08:48;101599.66;;;12.12;100.00
26489;BME280;14169;43.684;10.484;2023-03-22T02:11:26;101597.91;;;12.12;100.00
26489;BME280;14169;43.684;10.484;2023-03-22T02:14:07;101608.38;;;12.12;100.00
26489;BME280;14169;43.684;10.484;2023-03-22T02:16:57;101603.19;;;12.11;100.00
26489;BME280;14169;43.684;10.484;2023-03-22T02:25:53;101597.34;;;12.00;100.00
26489;BME280;14169;43.684;10.484;2023-03-22T02:40:16;101598.41;;;11.91;100.00
26489;BME280;14169;43.684;10.484;2023-03-22T02:43:00;101594.88;;;11.94;100.00
26489;BME280;14169;43.684;10.484;2023-03-22T02:45:34;101598.34;;;11.94;100.00
26489;BME280;14169;43.684;10.484;2023-03-22T02:48:12;101600.94;;;11.96;100.00
26489;BME280;14169;43.684;10.484;2023-03-22T02:53:19;101601.75;;;11.98;100.00
26489;BME280;14169;43.684;10.484;2023-03-22T02:58:45;101605.19;;;12.00;100.00
26489;BME280;14169;43.684;10.484;2023-03-22T03:01:27;101592.25;;;11.95;100.00
26489;BME280;14169;43.684;10.484;2023-03-22T03:03:58;101594.06;;;11.90;100.00
26489;BME280;14169;43.684;10.484;2023-03-22T03:06:28;101599.34;;;11.89;100.00
26489;BME280;14169;43.684;10.484;2023-03-22T03:08:57;101594.16;;;11.86;100.00
26489;BME280;14169;43.684;10.484;2023-03-22T03:11:29;101595.22;;;11.78;100.00
26489;BME280;14169;43.684;10.484;2023-03-22T03:13:55;101605.81;;;11.72;100.00
26489;BME280;14169;43.684;10.484;2023-03-22T03:16:27;101597.19;;;11.69;100.00
26489;BME280;14169;43.684;10.484;2023-03-22T03:21:44;101600.69;;;11.68;100.00
26489;BME280;14169;43.684;10.484;2023-03-22T03:31:57;101610.69;;;11.49;100.00
26489;BME280;14169;43.684;10.484;2023-03-22T03:37:23;101601.44;;;11.35;100.00
26489;BME280;14169;43.684;10.484;2023-03-22T03:39:54;101604.09;;;11.32;100.00
26489;BME280;14169;43.684;10.484;2023-03-22T03:42:24;101606.81;;;11.26;100.00
26489;BME280;14169;43.684;10.484;2023-03-22T03:44:51;101599.03;;;11.24;100.00
26489;BME280;14169;43.684;10.484;2023-03-22T03:47:17;101603.50;;;11.19;100.00
26489;BME280;14169;43.684;10.484;2023-03-22T03:49:43;101595.75;;;11.15;100.00
26489;BME280;14169;43.684;10.484;2023-03-22T03:52:08;101601.16;;;11.07;100.00
26489;BME280;14169;43.684;10.484;2023-03-22T03:54:34;101601.19;;;11.04;100.00
26489;BME280;14169;43.684;10.484;2023-03-22T03:56:59;101599.59;;;10.97;100.00
26489;BME280;14169;43.684;10.484;2023-03-22T03:59:25;101595.38;;;10.91;100.00
26489;BME280;14169;43.684;10.484;2023-03-22T04:01:50;101599.78;;;10.88;100.00
26489;BME280;14169;43.684;10.484;2023-03-22T04:04:25;101602.38;;;10.88;100.00
26489;BME280;14169;43.684;10.484;2023-03-22T04:06:55;101599.78;;;10.88;100.00
26489;BME280;14169;43.684;10.484;2023-03-22T04:09:29;101605.09;;;10.83;100.00
26489;BME280;14169;43.684;10.484;2023-03-22T04:11:56;101606.78;;;10.84;100.00
26489;BME280;14169;43.684;10.484;2023-03-22T04:14:22;101607.69;;;10.82;100.00
26489;BME280;14169;43.684;10.484;2023-03-22T04:16:49;101613.84;;;10.79;100.00
26489;BME280;14169;43.684;10.484;2023-03-22T04:19:14;101610.44;;;10.76;100.00
26489;BME280;14169;43.684;10.484;2023-03-22T04:21:40;101601.84;;;10.71;100.00
26489;BME280;14169;43.684;10.484;2023-03-22T04:24:06;101598.41;;;10.69;100.00
26489;BME280;14169;43.684;10.484;2023-03-22T04:26:32;101594.94;;;10.68;100.00
26489;BME280;14169;43.684;10.484;2023-03-22T04:28:57;101599.34;;;10.65;100.00
26489;BME280;14169;43.684;10.484;2023-03-22T04:31:26;101597.69;;;10.61;100.00
26489;BME280;14169;43.684;10.484;2023-03-22T04:33:51;101591.66;;;10.59;100.00
26489;BME280;14169;43.684;10.484;2023-03-22T04:36:23;101587.34;;;10.55;100.00
26489;BME280;14169;43.684;10.484;2023-03-22T04:38:49;101590.81;;;10.54;100.00
26489;BME280;14169;43.684;10.484;2023-03-22T04:41:16;101592.63;;;10.50;100.00
26489;BME280;14169;43.684;10.484;2023-03-22T04:43:41;101591.84;;;10.47;100.00
26489;BME280;14169;43.684;10.484;2023-03-22T04:46:12;101589.31;;;10.44;100.00
26489;BME280;14169;43.684;10.484;2023-03-22T04:48:38;101585.03;;;10.38;100.00
26489;BME280;14169;43.684;10.484;2023-03-22T04:51:05;101586.84;;;10.35;100.00
26489;BME280;14169;43.684;10.484;2023-03-22T04:53:32;101592.16;;;10.29;100.00
26489;BME280;14169;43.684;10.484;2023-03-22T04:56:03;101600.88;;;10.26;100.00
26489;BME280;14169;43.684;10.484;2023-03-22T04:58:31;101594.91;;;10.21;100.00
26489;BME280;14169;43.684;10.484;2023-03-22T05:00:57;101607.03;;;10.21;100.00
26489;BME280;14169;43.684;10.484;2023-03-22T05:03:23;101608.84;;;10.17;100.00
26489;BME280;14169;43.684;10.484;2023-03-22T05:05:53;101608.06;;;10.10;100.00
26489;BME280;14169;43.684;10.484;2023-03-22T05:08:20;101620.25;;;10.08;100.00
26489;BME280;14169;43.684;10.484;2023-03-22T05:10:46;101615.16;;;10.02;100.00
26489;BME280;14169;43.684;10.484;2023-03-22T05:13:12;101623.03;;;9.99;100.00
26489;BME280;14169;43.684;10.484;2023-03-22T05:15:38;101618.75;;;9.95;100.00
26489;BME280;14169;43.684;10.484;2023-03-22T05:18:03;101618.78;;;9.92;100.00
26489;BME280;14169;43.684;10.484;2023-03-22T05:20:29;101630.09;;;9.91;100.00
26489;BME280;14169;43.684;10.484;2023-03-22T05:22:55;101627.47;;;9.90;100.00
26489;BME280;14169;43.684;10.484;2023-03-22T05:25:21;101629.38;;;9.82;100.00
26489;BME280;14169;43.684;10.484;2023-03-22T05:27:47;101630.28;;;9.78;100.00
26489;BME280;14169;43.684;10.484;2023-03-22T05:30:14;101636.41;;;9.74;100.00
26489;BME280;14169;43.684;10.484;2023-03-22T05:32:40;101640.78;;;9.72;100.00
26489;BME280;14169;43.684;10.484;2023-03-22T05:35:08;101646.03;;;9.67;100.00
26489;BME280;14169;43.684;10.484;2023-03-22T05:37:34;101644.31;;;9.66;100.00
26489;BME280;14169;43.684;10.484;2023-03-22T05:40:00;101645.19;;;9.67;100.00
26489;BME280;14169;43.684;10.484;2023-03-22T05:42:26;101644.31;;;9.66;100.00
26489;BME280;14169;43.684;10.484;2023-03-22T05:44:52;101638.25;;;9.66;100.00
26489;BME280;14169;43.684;10.484;2023-03-22T05:47:17;101649.56;;;9.63;100.00
26489;BME280;14169;43.684;10.484;2023-03-22T05:49:42;101652.16;;;9.63;100.00
26489;BME280;14169;43.684;10.484;2023-03-22T05:52:08;101645.22;;;9.62;100.00
26489;BME280;14169;43.684;10.484;2023-03-22T05:54:33;101658.22;;;9.62;100.00
26489;BME280;14169;43.684;10.484;2023-03-22T05:56:59;101663.44;;;9.62;100.00
26489;BME280;14169;43.684;10.484;2023-03-22T05:59:25;101661.66;;;9.67;100.00
26489;BME280;14169;43.684;10.484;2023-03-22T06:01:51;101661.63;;;9.69;100.00
26489;BME280;14169;43.684;10.484;2023-03-22T06:04:16;101656.38;;;9.73;100.00
26489;BME280;14169;43.684;10.484;2023-03-22T06:06:42;101658.16;;;9.70;100.00
26489;BME280;14169;43.684;10.484;2023-03-22T06:09:08;101659.88;;;9.71;100.00
26489;BME280;14169;43.684;10.484;2023-03-22T06:11:33;101659.00;;;9.70;100.00
26489;BME280;14169;43.684;10.484;2023-03-22T06:13:59;101663.28;;;9.76;100.00
26489;BME280;14169;43.684;10.484;2023-03-22T06:16:26;101666.72;;;9.76;100.00
26489;BME280;14169;43.684;10.484;2023-03-22T06:18:51;101667.63;;;9.75;100.00
26489;BME280;14169;43.684;10.484;2023-03-22T06:21:17;101665.78;;;9.83;100.00
26489;BME280;14169;43.684;10.484;2023-03-22T06:23:42;101670.03;;;9.86;100.00
26489;BME280;14169;43.684;10.484;2023-03-22T06:26:08;101669.97;;;9.92;100.00
26489;BME280;14169;43.684;10.484;2023-03-22T06:28:36;101667.28;;;9.96;100.00
26489;BME280;14169;43.684;10.484;2023-03-22T06:31:06;101665.53;;;9.98;100.00
26489;BME280;14169;43.684;10.484;2023-03-22T06:33:33;101675.81;;;10.06;100.00
26489;BME280;14169;43.684;10.484;2023-03-22T06:35:58;101673.22;;;10.07;100.00
26489;BME280;14169;43.684;10.484;2023-03-22T06:38:24;101674.84;;;10.15;100.00
26489;BME280;14169;43.684;10.484;2023-03-22T06:40:50;101679.09;;;10.22;100.00
26489;BME280;14169;43.684;10.484;2023-03-22T06:43:15;101681.56;;;10.29;100.00
26489;BME280;14169;43.684;10.484;2023-03-22T06:45:41;101683.16;;;10.38;100.00
26489;BME280;14169;43.684;10.484;2023-03-22T06:48:06;101673.50;;;10.46;100.00
26489;BME280;14169;43.684;10.484;2023-03-22T06:50:31;101689.00;;;10.53;100.00
26489;BME280;14169;43.684;10.484;2023-03-22T06:52:58;101683.69;;;10.61;100.00
26489;BME280;14169;43.684;10.484;2023-03-22T06:55:23;101687.84;;;10.71;100.00
26489;BME280;14169;43.684;10.484;2023-03-22T06:57:49;101687.75;;;10.77;100.00
26489;BME280;14169;43.684;10.484;2023-03-22T07:00:15;101695.38;;;10.87;100.00
26489;BME280;14169;43.684;10.484;2023-03-22T07:02:40;101694.28;;;10.99;100.00
26489;BME280;14169;43.684;10.484;2023-03-22T07:05:06;101696.72;;;11.08;100.00
26489;BME280;14169;43.684;10.484;2023-03-22T07:07:32;101696.56;;;11.17;100.00
26489;BME280;14169;43.684;10.484;2023-03-22T07:09:57;101697.25;;;11.27;100.00
26489;BME280;14169;43.684;10.484;2023-03-22T07:12:23;101708.34;;;11.36;100.00
26489;BME280;14169;43.684;10.484;2023-03-22T07:14:48;101698.56;;;11.47;100.00
26489;BME280;14169;43.684;10.484;2023-03-22T07:17:13;101694.81;;;11.60;100.00
26489;BME280;14169;43.684;10.484;2023-03-22T07:19:39;101694.63;;;11.69;100.00
26489;BME280;14169;43.684;10.484;2023-03-22T07:22:06;101703.09;;;11.80;100.00
26489;BME280;14169;43.684;10.484;2023-03-22T07:24:32;101701.16;;;11.89;100.00
26489;BME280;14169;43.684;10.484;2023-03-22T07:26:57;101692.31;;;11.97;100.00
26489;BME280;14169;43.684;10.484;2023-03-22T07:29:22;101697.19;;;12.12;100.00
26489;BME280;14169;43.684;10.484;2023-03-22T07:31:48;101696.78;;;12.29;100.00
26489;BME280;14169;43.684;10.484;2023-03-22T07:34:13;101696.66;;;12.35;100.00
26489;BME280;14169;43.684;10.484;2023-03-22T07:36:40;101696.56;;;12.38;100.00
26489;BME280;14169;43.684;10.484;2023-03-22T07:39:06;101699.97;;;12.41;100.00
26489;BME280;14169;43.684;10.484;2023-03-22T07:41:31;101704.06;;;12.53;100.00
26489;BME280;14169;43.684;10.484;2023-03-22T07:43:57;101708.06;;;12.66;100.00
26489;BME280;14169;43.684;10.484;2023-03-22T07:46:22;101700.81;;;12.77;100.00
26489;BME280;14169;43.684;10.484;2023-03-22T07:48:48;101707.59;;;12.84;100.00
26489;BME280;14169;43.684;10.484;2023-03-22T07:51:13;101708.34;;;12.89;100.00
26489;BME280;14169;43.684;10.484;2023-03-22T07:53:39;101704.06;;;12.87;100.00
26489;BME280;14169;43.684;10.484;2023-03-22T07:56:05;101711.78;;;12.91;100.00
26489;BME280;14169;43.684;10.484;2023-03-22T07:58:30;101709.75;;;13.02;100.00
26489;BME280;14169;43.684;10.484;2023-03-22T08:00:56;101710.81;;;13.27;100.00
26489;BME280;14169;43.684;10.484;2023-03-22T08:03:22;101713.31;;;13.32;100.00
26489;BME280;14169;43.684;10.484;2023-03-22T08:05:48;101713.19;;;13.36;100.00
26489;BME280;14169;43.684;10.484;2023-03-22T08:08:13;101713.97;;;13.40;100.00
26489;BME280;14169;43.684;10.484;2023-03-22T08:10:39;101719.84;;;13.48;100.00
26489;BME280;14169;43.684;10.484;2023-03-22T08:13:04;101711.47;;;13.66;100.00
26489;BME280;14169;43.684;10.484;2023-03-22T08:15:30;101710.97;;;13.83;100.00
26489;BME280;14169;43.684;10.484;2023-03-22T08:17:56;101701.78;;;13.97;100.00
26489;BME280;14169;43.684;10.484;2023-03-22T08:20:25;101710.00;;;14.14;100.00
26489;BME280;14169;43.684;10.484;2023-03-22T08:22:52;101709.28;;;14.37;100.00
26489;BME280;14169;43.684;10.484;2023-03-22T08:25:17;101707.13;;;14.50;100.00
26489;BME280;14169;43.684;10.484;2023-03-22T08:27:43;101713.53;;;14.67;100.00
26489;BME280;14169;43.684;10.484;2023-03-22T08:30:09;101717.22;;;14.88;100.00
26489;BME280;14169;43.684;10.484;2023-03-22T08:32:35;101714.44;;;14.92;100.00
26489;BME280;14169;43.684;10.484;2023-03-22T08:35:03;101715.78;;;15.04;100.00
26489;BME280;14169;43.684;10.484;2023-03-22T08:37:29;101717.94;;;15.17;100.00
26489;BME280;14169;43.684;10.484;2023-03-22T08:39:54;101721.44;;;15.43;100.00
26489;BME280;14169;43.684;10.484;2023-03-22T08:42:20;101720.72;;;15.62;100.00
26489;BME280;14169;43.684;10.484;2023-03-22T08:44:46;101722.91;;;15.73;100.00
26489;BME280;14169;43.684;10.484;2023-03-22T08:47:12;101724.97;;;15.88;100.00
26489;BME280;14169;43.684;10.484;2023-03-22T08:49:37;101722.94;;;15.96;100.00
26489;BME280;14169;43.684;10.484;2023-03-22T08:52:03;101733.59;;;16.15;100.00
26489;BME280;14169;43.684;10.484;2023-03-22T08:54:31;101729.72;;;16.46;100.00
26489;BME280;14169;43.684;10.484;2023-03-22T08:56:58;101734.03;;;16.69;100.00
26489;BME280;14169;43.684;10.484;2023-03-22T08:59:23;101743.16;;;16.60;100.00
26489;BME280;14169;43.684;10.484;2023-03-22T09:01:49;101742.72;;;16.71;100.00
26489;BME280;14169;43.684;10.484;2023-03-22T09:04:14;101747.44;;;16.84;100.00
26489;BME280;14169;43.684;10.484;2023-03-22T09:06:40;101755.47;;;17.02;100.00
26489;BME280;14169;43.684;10.484;2023-03-22T09:09:08;101759.75;;;17.04;100.00
26489;BME280;14169;43.684;10.484;2023-03-22T09:11:33;101760.06;;;17.17;100.00
26489;BME280;14169;43.684;10.484;2023-03-22T09:14:01;101761.00;;;17.16;100.00
26489;BME280;14169;43.684;10.484;2023-03-22T09:16:26;101762.16;;;17.29;100.00
26489;BME280;14169;43.684;10.484;2023-03-22T09:18:52;101766.75;;;17.45;100.00
26489;BME280;14169;43.684;10.484;2023-03-22T09:21:17;101768.13;;;17.54;100.00
26489;BME280;14169;43.684;10.484;2023-03-22T09:23:43;101767.25;;;17.53;100.00
26489;BME280;14169;43.684;10.484;2023-03-22T09:26:11;101777.00;;;17.72;100.00
26489;BME280;14169;43.684;10.484;2023-03-22T09:28:37;101772.31;;;17.97;100.00
26489;BME280;14169;43.684;10.484;2023-03-22T09:31:05;101773.38;;;18.11;100.00
26489;BME280;14169;43.684;10.484;2023-03-22T09:33:31;101776.97;;;18.29;100.00
26489;BME280;14169;43.684;10.484;2023-03-22T09:35:57;101772.91;;;18.22;100.00
26489;BME280;14169;43.684;10.484;2023-03-22T09:38:23;101765.56;;;18.28;100.00
26489;BME280;14169;43.684;10.484;2023-03-22T09:40:52;101770.03;;;18.08;100.00
26489;BME280;14169;43.684;10.484;2023-03-22T09:43:27;101768.88;;;17.95;100.00
26489;BME280;14169;43.684;10.484;2023-03-22T09:45:53;101765.75;;;17.87;100.00
26489;BME280;14169;43.684;10.484;2023-03-22T09:48:37;101764.75;;;17.89;100.00
26489;BME280;14169;43.684;10.484;2023-03-22T09:51:05;101755.16;;;17.88;100.00
26489;BME280;14169;43.684;10.484;2023-03-22T09:53:32;101758.22;;;17.59;100.00
26489;BME280;14169;43.684;10.484;2023-03-22T09:56:12;101758.63;;;17.70;100.00
26489;BME280;14169;43.684;10.484;2023-03-22T09:58:51;101752.16;;;17.96;100.00
26489;BME280;14169;43.684;10.484;2023-03-22T10:01:27;101757.28;;;17.99;100.00
26489;BME280;14169;43.684;10.484;2023-03-22T10:04:24;101751.09;;;17.61;100.00
26489;BME280;14169;43.684;10.484;2023-03-22T10:10:31;101757.44;;;18.14;100.00
26489;BME280;14169;43.684;10.484;2023-03-22T10:15:35;101764.25;;;17.81;100.00
26489;BME280;14169;43.684;10.484;2023-03-22T10:18:05;101758.22;;;17.59;100.00
26489;BME280;14169;43.684;10.484;2023-03-22T10:23:08;101752.94;;;18.71;100.00
26489;BME280;14169;43.684;10.484;2023-03-22T10:25:37;101755.78;;;19.36;100.00
26489;BME280;14169;43.684;10.484;2023-03-22T10:28:23;101766.31;;;19.53;100.00
26489;BME280;14169;43.684;10.484;2023-03-22T10:30:53;101760.06;;;19.71;100.00
26489;BME280;14169;43.684;10.484;2023-03-22T10:33:39;101751.16;;;20.20;100.00
26489;BME280;14169;43.684;10.484;2023-03-22T10:36:14;101740.31;;;20.41;100.00
26489;BME280;14169;43.684;10.484;2023-03-22T10:41:46;101739.22;;;20.45;100.00
26489;BME280;14169;43.684;10.484;2023-03-22T10:44:16;101724.44;;;20.41;100.00
26489;BME280;14169;43.684;10.484;2023-03-22T10:46:43;101728.41;;;20.79;100.00
26489;BME280;14169;43.684;10.484;2023-03-22T10:49:18;101724.56;;;20.69;100.00
26489;BME280;14169;43.684;10.484;2023-03-22T10:51:50;101725.91;;;20.31;100.00
26489;BME280;14169;43.684;10.484;2023-03-22T10:54:19;101724.69;;;20.36;100.00
26489;BME280;14169;43.684;10.484;2023-03-22T10:56:46;101726.06;;;20.43;100.00
26489;BME280;14169;43.684;10.484;2023-03-22T10:59:47;101722.16;;;20.64;100.00
26489;BME280;14169;43.684;10.484;2023-03-22T11:02:20;101718.59;;;20.81;100.00
26489;BME280;14169;43.684;10.484;2023-03-22T11:04:57;101716.13;;;20.78;100.00
26489;BME280;14169;43.684;10.484;2023-03-22T11:07:46;101714.22;;;20.03;100.00
26489;BME280;14169;43.684;10.484;2023-03-22T11:10:19;101709.78;;;20.19;100.00
26489;BME280;14169;43.684;10.484;2023-03-22T11:15:35;101711.72;;;20.00;100.00
26489;BME280;14169;43.684;10.484;2023-03-22T11:18:10;101712.91;;;20.26;100.00
26489;BME280;14169;43.684;10.484;2023-03-22T11:20:40;101705.25;;;20.67;100.00
26489;BME280;14169;43.684;10.484;2023-03-22T11:23:11;101707.00;;;20.52;100.00
26489;BME280;14169;43.684;10.484;2023-03-22T11:25:44;101713.19;;;20.22;100.00
26489;BME280;14169;43.684;10.484;2023-03-22T11:28:32;101713.34;;;20.50;100.00
26489;BME280;14169;43.684;10.484;2023-03-22T11:31:11;101708.53;;;20.72;100.00
26489;BME280;14169;43.684;10.484;2023-03-22T11:33:44;101709.72;;;20.96;100.00
26489;BME280;14169;43.684;10.484;2023-03-22T11:36:18;101702.81;;;21.51;100.00
26489;BME280;14169;43.684;10.484;2023-03-22T11:38:43;101698.44;;;21.78;100.00
26489;BME280;14169;43.684;10.484;2023-03-22T11:41:22;101700.88;;;21.25;100.00
26489;BME280;14169;43.684;10.484;2023-03-22T11:43:54;101701.81;;;20.80;100.00
26489;BME280;14169;43.684;10.484;2023-03-22T11:46:21;101705.50;;;20.62;100.00
26489;BME280;14169;43.684;10.484;2023-03-22T11:48:49;101701.63;;;20.54;100.00
26489;BME280;14169;43.684;10.484;2023-03-22T11:51:27;101695.63;;;20.66;100.00
26489;BME280;14169;43.684;10.484;2023-03-22T11:54:13;101712.09;;;20.26;100.00
26489;BME280;14169;43.684;10.484;2023-03-22T11:56:43;101702.44;;;20.25;100.00
26489;BME280;14169;43.684;10.484;2023-03-22T11:59:39;101706.50;;;20.30;100.00
26489;BME280;14169;43.684;10.484;2023-03-22T12:04:53;101693.16;;;20.17;100.00
26489;BME280;14169;43.684;10.484;2023-03-22T12:07:21;101694.91;;;20.33;100.00
26489;BME280;14169;43.684;10.484;2023-03-22T12:09:57;101698.25;;;20.20;100.00
26489;BME280;14169;43.684;10.484;2023-03-22T12:12:28;101687.84;;;20.17;100.00
26489;BME280;14169;43.684;10.484;2023-03-22T12:15:25;101683.97;;;20.39;100.00
26489;BME280;14169;43.684;10.484;2023-03-22T12:17:58;101686.72;;;20.67;100.00
26489;BME280;14169;43.684;10.484;2023-03-22T12:20:36;101688.03;;;20.75;100.00
26489;BME280;14169;43.684;10.484;2023-03-22T12:23:12;101679.03;;;20.62;100.00
26489;BME280;14169;43.684;10.484;2023-03-22T12:25:39;101676.63;;;20.28;100.00
26489;BME280;14169;43.684;10.484;2023-03-22T12:28:10;101672.66;;;20.51;100.00
26489;BME280;14169;43.684;10.484;2023-03-22T12:30:53;101675.38;;;20.65;100.00
26489;BME280;14169;43.684;10.484;2023-03-22T12:33:29;101665.78;;;20.62;100.00
26489;BME280;14169;43.684;10.484;2023-03-22T12:35:57;101660.91;;;20.70;100.00
26489;BME280;14169;43.684;10.484;2023-03-22T12:38:38;101667.53;;;21.07;100.00
26489;BME280;14169;43.684;10.484;2023-03-22T12:41:14;101672.47;;;21.27;100.00
26489;BME280;14169;43.684;10.484;2023-03-22T12:43:47;101668.22;;;21.39;100.00
26489;BME280;14169;43.684;10.484;2023-03-22T12:46:34;101664.91;;;21.21;100.00
26489;BME280;14169;43.684;10.484;2023-03-22T12:49:04;101660.63;;;21.47;100.00
26489;BME280;14169;43.684;10.484;2023-03-22T12:51:31;101657.31;;;21.85;100.00
26489;BME280;14169;43.684;10.484;2023-03-22T12:53:57;101665.56;;;21.81;100.00
26489;BME280;14169;43.684;10.484;2023-03-22T12:56:27;101656.25;;;21.74;100.00
26489;BME280;14169;43.684;10.484;2023-03-22T12:58:58;101654.97;;;21.67;100.00
26489;BME280;14169;43.684;10.484;2023-03-22T13:01:51;101657.34;;;21.57;100.00
26489;BME280;14169;43.684;10.484;2023-03-22T13:09:48;101644.31;;;22.61;100.00
26489;BME280;14169;43.684;10.484;2023-03-22T13:35:34;101627.56;;;23.36;95.06
26489;BME280;14169;43.684;10.484;2023-03-22T13:38:05;101617.38;;;23.79;93.03
26489;BME280;14169;43.684;10.484;2023-03-22T13:40:42;101624.25;;;23.45;92.02
26489;BME280;14169;43.684;10.484;2023-03-22T13:51:28;101624.28;;;22.95;92.40
26489;BME280;14169;43.684;10.484;2023-03-22T13:59:10;101617.19;;;22.95;93.39
26489;BME280;14169;43.684;10.484;2023-03-22T14:01:50;101614.81;;;22.91;90.29
26489;BME280;14169;43.684;10.484;2023-03-22T14:04:20;101628.06;;;22.78;88.66
26489;BME280;14169;43.684;10.484;2023-03-22T14:07:03;101618.94;;;22.69;88.58
26489;BME280;14169;43.684;10.484;2023-03-22T14:09:34;101623.94;;;22.61;95.30
26489;BME280;14169;43.684;10.484;2023-03-22T14:12:07;101615.66;;;23.16;98.74
26489;BME280;14169;43.684;10.484;2023-03-22T14:14:41;101608.03;;;22.99;93.91
26489;BME280;14169;43.684;10.484;2023-03-22T14:17:17;101613.72;;;22.81;95.63
26489;BME280;14169;43.684;10.484;2023-03-22T14:19:46;101608.50;;;22.66;100.00